createdAt,value
2017-09-10T00:00:54.206Z,0
2017-09-10T00:02:04.775Z,0
2017-09-10T00:03:14.732Z,0
2017-09-10T00:04:24.675Z,0
2017-09-10T00:05:34.935Z,0
2017-09-10T00:06:44.552Z,0
2017-09-10T00:07:54.740Z,0
2017-09-10T00:09:04.680Z,0
2017-09-10T00:10:14.305Z,0
2017-09-10T00:11:24.557Z,0
2017-09-10T00:12:34.807Z,0
2017-09-10T00:13:45.311Z,0
2017-09-10T00:14:55.244Z,0
2017-09-10T00:16:05.521Z,0
2017-09-10T00:17:15.465Z,0
2017-09-10T00:18:25.420Z,0
2017-09-10T00:19:35.596Z,0
2017-09-10T00:20:45.850Z,0
2017-09-10T00:21:55.779Z,0
2017-09-10T00:23:06.021Z,0
2017-09-10T00:24:15.997Z,0
2017-09-10T00:25:26.191Z,0
2017-09-10T00:26:36.138Z,0
2017-09-10T00:27:46.384Z,0
2017-09-10T00:28:56.325Z,0
2017-09-10T00:30:06.270Z,0
2017-09-10T00:31:16.158Z,0
2017-09-10T00:32:26.419Z,0
2017-09-10T00:33:36.664Z,0
2017-09-10T00:34:46.610Z,0
2017-09-10T00:35:56.861Z,0
2017-09-10T00:37:07.365Z,0
2017-09-10T00:38:17.611Z,0
2017-09-10T00:39:27.854Z,0
2017-09-10T00:40:38.124Z,0
2017-09-10T00:41:48.382Z,0
2017-09-10T00:42:58.883Z,0
2017-09-10T00:44:09.141Z,0
2017-09-10T00:45:19.074Z,0
2017-09-10T00:46:29.320Z,0
2017-09-10T00:47:39.570Z,0
2017-09-10T00:48:50.080Z,0
2017-09-10T00:50:00.340Z,0
2017-09-10T00:51:10.276Z,0
2017-09-10T00:52:20.210Z,0
2017-09-10T00:53:30.141Z,0
2017-09-10T00:54:40.323Z,0
2017-09-10T00:55:50.583Z,0
2017-09-10T00:57:00.577Z,0
2017-09-10T00:58:10.841Z,0
2017-09-10T00:59:21.098Z,0
2017-09-10T01:00:31.598Z,0
2017-09-10T01:01:41.860Z,0
2017-09-10T01:02:52.111Z,0
2017-09-10T01:04:02.367Z,0
2017-09-10T01:05:12.626Z,0
2017-09-10T01:06:22.492Z,0
2017-09-10T01:07:32.746Z,0
2017-09-10T01:08:43.007Z,0
2017-09-10T01:09:52.962Z,0
2017-09-10T01:11:02.902Z,0
2017-09-10T01:12:13.082Z,0
2017-09-10T01:13:23.338Z,0
2017-09-10T01:14:33.588Z,0
2017-09-10T01:15:43.844Z,0
2017-09-10T01:16:53.785Z,0
2017-09-10T01:18:04.295Z,0
2017-09-10T01:19:14.549Z,0
2017-09-10T01:20:24.502Z,0
2017-09-10T01:21:34.751Z,0
2017-09-10T01:22:45.015Z,0
2017-09-10T01:23:55.230Z,0
2017-09-10T01:25:05.501Z,0
2017-09-10T01:26:15.437Z,0
2017-09-10T01:27:25.373Z,0
2017-09-10T01:28:35.306Z,0
2017-09-10T01:29:45.815Z,0
2017-09-10T01:30:56.066Z,0
2017-09-10T01:32:06.327Z,0
2017-09-10T01:33:16.267Z,0
2017-09-10T01:34:26.514Z,0
2017-09-10T01:35:37.002Z,0
2017-09-10T01:36:46.624Z,0
2017-09-10T01:37:56.873Z,0
2017-09-10T01:39:07.132Z,0
2017-09-10T01:40:17.378Z,0
2017-09-10T01:41:27.249Z,0
2017-09-10T01:42:37.180Z,0
2017-09-10T01:43:47.429Z,0
2017-09-10T01:44:57.668Z,0
2017-09-10T01:46:07.915Z,0
2017-09-10T01:47:18.339Z,0
2017-09-10T01:48:28.589Z,0
2017-09-10T01:49:38.843Z,0
2017-09-10T01:50:49.085Z,0
2017-09-10T01:51:59.030Z,0
2017-09-10T01:53:09.556Z,0
2017-09-10T01:54:19.808Z,0
2017-09-10T01:55:30.057Z,0
2017-09-10T01:56:40.304Z,0
2017-09-10T01:57:50.584Z,0
2017-09-10T01:59:01.087Z,0
2017-09-10T02:00:11.350Z,0
2017-09-10T02:01:21.282Z,0
2017-09-10T02:02:31.222Z,0
2017-09-10T02:03:41.495Z,0
2017-09-10T02:04:51.992Z,0
2017-09-10T02:06:01.945Z,0
2017-09-10T02:07:12.199Z,0
2017-09-10T02:08:22.450Z,0
2017-09-10T02:09:32.740Z,0
2017-09-10T02:10:42.316Z,0
2017-09-10T02:11:52.570Z,0
2017-09-10T02:13:02.813Z,0
2017-09-10T02:14:13.104Z,0
2017-09-10T02:15:23.348Z,0
2017-09-10T02:16:33.859Z,0
2017-09-10T02:17:44.106Z,0
2017-09-10T02:18:53.773Z,0
2017-09-10T02:20:04.039Z,0
2017-09-10T02:21:14.294Z,0
2017-09-10T02:22:24.779Z,0
2017-09-10T02:23:34.420Z,0
2017-09-10T02:24:44.686Z,0
2017-09-10T02:25:54.925Z,0
2017-09-10T02:27:04.872Z,0
2017-09-10T02:28:15.370Z,0
2017-09-10T02:29:25.621Z,0
2017-09-10T02:30:35.584Z,0
2017-09-10T02:31:45.838Z,0
2017-09-10T02:32:56.103Z,0
2017-09-10T02:34:06.615Z,0
2017-09-10T02:35:16.550Z,0
2017-09-10T02:36:26.792Z,0
2017-09-10T02:37:36.427Z,0
2017-09-10T02:38:46.054Z,0
2017-09-10T02:39:56.557Z,0
2017-09-10T02:41:06.810Z,0
2017-09-10T02:42:16.749Z,0
2017-09-10T02:43:27.005Z,0
2017-09-10T02:44:36.939Z,0
2017-09-10T02:45:47.439Z,0
2017-09-10T02:46:57.697Z,0
2017-09-10T02:48:07.954Z,0
2017-09-10T02:49:17.897Z,0
2017-09-10T02:50:28.151Z,0
2017-09-10T02:51:38.652Z,0
2017-09-10T02:52:48.897Z,0
2017-09-10T02:53:58.849Z,0
2017-09-10T02:55:09.106Z,0
2017-09-10T02:56:19.044Z,0
2017-09-10T02:57:29.227Z,0
2017-09-10T02:58:39.470Z,0
2017-09-10T02:59:49.730Z,0
2017-09-10T03:00:59.989Z,0
2017-09-10T03:02:10.236Z,0
2017-09-10T03:03:20.420Z,0
2017-09-10T03:04:30.671Z,0
2017-09-10T03:05:40.934Z,0
2017-09-10T03:06:50.863Z,0
2017-09-10T03:08:01.120Z,0
2017-09-10T03:09:11.305Z,0
2017-09-10T03:10:21.565Z,0
2017-09-10T03:11:31.827Z,0
2017-09-10T03:12:42.085Z,0
2017-09-10T03:13:52.359Z,0
2017-09-10T03:15:02.856Z,0
2017-09-10T03:16:13.114Z,0
2017-09-10T03:17:23.368Z,0
2017-09-10T03:18:33.617Z,0
2017-09-10T03:19:43.867Z,0
2017-09-10T03:20:54.377Z,0
2017-09-10T03:22:04.304Z,0
2017-09-10T03:23:14.554Z,0
2017-09-10T03:24:24.833Z,0
2017-09-10T03:25:35.431Z,0
2017-09-10T03:26:45.616Z,0
2017-09-10T03:27:55.232Z,0
2017-09-10T03:29:04.537Z,0
2017-09-10T03:30:14.478Z,0
2017-09-10T03:31:24.414Z,0
2017-09-10T03:32:34.911Z,0
2017-09-10T03:33:45.160Z,0
2017-09-10T03:34:55.426Z,0
2017-09-10T03:36:05.359Z,0
2017-09-10T03:37:15.607Z,0
2017-09-10T03:38:25.788Z,0
2017-09-10T03:39:36.048Z,0
2017-09-10T03:40:45.991Z,0
2017-09-10T03:41:55.926Z,0
2017-09-10T03:43:05.866Z,0
2017-09-10T03:44:16.373Z,0
2017-09-10T03:45:26.309Z,0
2017-09-10T03:46:36.251Z,0
2017-09-10T03:47:46.186Z,0
2017-09-10T03:48:56.217Z,0
2017-09-10T03:50:06.720Z,0
2017-09-10T03:51:16.649Z,0
2017-09-10T03:52:26.266Z,0
2017-09-10T03:53:36.527Z,0
2017-09-10T03:54:46.468Z,0
2017-09-10T03:55:56.970Z,0
2017-09-10T03:57:07.238Z,0
2017-09-10T03:58:17.170Z,0
2017-09-10T03:59:27.420Z,0
2017-09-10T04:00:37.676Z,0
2017-09-10T04:01:48.188Z,0
2017-09-10T04:02:58.124Z,0
2017-09-10T04:04:08.379Z,0
2017-09-10T04:05:18.316Z,4
2017-09-10T04:06:28.251Z,4
2017-09-10T04:07:38.753Z,4
2017-09-10T04:08:48.999Z,4
2017-09-10T04:09:59.252Z,4
2017-09-10T04:11:09.507Z,8
2017-09-10T04:12:19.447Z,4
2017-09-10T04:13:29.957Z,8
2017-09-10T04:14:40.203Z,8
2017-09-10T04:15:50.452Z,12
2017-09-10T04:17:00.076Z,16
2017-09-10T04:18:10.339Z,20
2017-09-10T04:19:20.535Z,24
2017-09-10T04:20:30.785Z,28
2017-09-10T04:21:40.728Z,32
2017-09-10T04:22:50.976Z,40
2017-09-10T04:24:00.911Z,44
2017-09-10T04:25:11.412Z,52
2017-09-10T04:26:21.348Z,60
2017-09-10T04:27:31.300Z,68
2017-09-10T04:28:41.244Z,80
2017-09-10T04:29:51.505Z,88
2017-09-10T04:31:02.003Z,100
2017-09-10T04:32:12.276Z,116
2017-09-10T04:33:22.523Z,128
2017-09-10T04:34:32.457Z,136
2017-09-10T04:35:42.388Z,152
2017-09-10T04:36:52.894Z,164
2017-09-10T04:38:03.153Z,184
2017-09-10T04:39:13.099Z,208
2017-09-10T04:40:23.358Z,240
2017-09-10T04:41:33.289Z,272
2017-09-10T04:42:43.789Z,312
2017-09-10T04:43:54.031Z,356
2017-09-10T04:45:04.286Z,400
2017-09-10T04:46:14.224Z,440
2017-09-10T04:47:24.477Z,476
2017-09-10T04:48:34.980Z,516
2017-09-10T04:49:45.221Z,568
2017-09-10T04:50:55.167Z,636
2017-09-10T04:52:05.110Z,720
2017-09-10T04:53:15.044Z,804
2017-09-10T04:54:25.546Z,900
2017-09-10T04:55:35.801Z,1032
2017-09-10T04:56:45.427Z,1168
2017-09-10T04:57:55.399Z,1244
2017-09-10T04:59:05.644Z,1292
2017-09-10T05:00:15.827Z,1388
2017-09-10T05:01:26.072Z,1544
2017-09-10T05:02:36.323Z,1720
2017-09-10T05:03:46.577Z,1876
2017-09-10T05:04:56.822Z,2020
2017-09-10T05:06:06.998Z,2144
2017-09-10T05:07:17.252Z,2228
2017-09-10T05:08:27.500Z,2308
2017-09-10T05:09:37.443Z,2396
2017-09-10T05:10:47.686Z,2480
2017-09-10T05:11:57.555Z,2576
2017-09-10T05:13:07.823Z,2708
2017-09-10T05:14:18.075Z,2888
2017-09-10T05:15:28.785Z,3080
2017-09-10T05:16:38.409Z,3256
2017-09-10T05:17:48.940Z,3392
2017-09-10T05:18:58.907Z,3464
2017-09-10T05:20:08.841Z,3472
2017-09-10T05:21:18.776Z,3436
2017-09-10T05:22:28.714Z,3388
2017-09-10T05:23:39.236Z,3348
2017-09-10T05:24:49.481Z,3320
2017-09-10T05:25:59.418Z,3288
2017-09-10T05:27:09.686Z,3244
2017-09-10T05:28:19.925Z,3188
2017-09-10T05:29:30.424Z,3136
2017-09-10T05:30:40.678Z,3100
2017-09-10T05:31:50.301Z,3068
2017-09-10T05:33:00.545Z,3024
2017-09-10T05:34:10.805Z,2968
2017-09-10T05:35:21.302Z,2956
2017-09-10T05:36:31.245Z,2984
2017-09-10T05:37:41.484Z,3040
2017-09-10T05:38:51.418Z,3120
2017-09-10T05:40:01.670Z,3240
2017-09-10T05:41:12.170Z,3344
2017-09-10T05:42:22.431Z,3412
2017-09-10T05:43:32.376Z,3452
2017-09-10T05:44:42.643Z,3496
2017-09-10T05:45:52.895Z,3552
2017-09-10T05:47:03.403Z,3632
2017-09-10T05:48:13.650Z,3764
2017-09-10T05:49:23.589Z,3948
2017-09-10T05:50:33.858Z,4196
2017-09-10T05:51:43.797Z,4572
2017-09-10T05:52:54.012Z,5072
2017-09-10T05:54:03.626Z,5548
2017-09-10T05:55:13.877Z,5892
2017-09-10T05:56:24.118Z,6176
2017-09-10T05:57:34.361Z,6312
2017-09-10T05:58:44.547Z,6364
2017-09-10T05:59:54.506Z,6564
2017-09-10T06:01:04.765Z,6820
2017-09-10T06:02:15.012Z,7020
2017-09-10T06:03:24.944Z,7252
2017-09-10T06:04:35.124Z,7580
2017-09-10T06:05:45.386Z,7876
2017-09-10T06:06:55.647Z,8116
2017-09-10T06:08:05.605Z,8340
2017-09-10T06:09:15.862Z,8520
2017-09-10T06:10:26.354Z,8612
2017-09-10T06:11:36.618Z,8488
2017-09-10T06:12:46.551Z,8172
2017-09-10T06:13:56.825Z,7848
2017-09-10T06:15:07.106Z,7620
2017-09-10T06:16:17.287Z,7480
2017-09-10T06:17:27.545Z,7372
2017-09-10T06:18:37.797Z,7332
2017-09-10T06:19:47.736Z,7296
2017-09-10T06:20:57.988Z,7340
2017-09-10T06:22:08.493Z,7436
2017-09-10T06:23:18.786Z,7596
2017-09-10T06:24:28.728Z,7720
2017-09-10T06:25:38.977Z,7820
2017-09-10T06:26:49.229Z,7876
2017-09-10T06:27:59.411Z,7884
2017-09-10T06:29:09.668Z,7860
2017-09-10T06:30:19.309Z,7904
2017-09-10T06:31:29.264Z,8060
2017-09-10T06:32:39.201Z,8340
2017-09-10T06:33:49.761Z,8736
2017-09-10T06:35:00.020Z,9244
2017-09-10T06:36:10.274Z,9832
2017-09-10T06:37:20.526Z,10408
2017-09-10T06:38:30.777Z,11084
2017-09-10T06:39:40.965Z,11868
2017-09-10T06:40:51.229Z,12548
2017-09-10T06:42:01.495Z,13020
2017-09-10T06:43:11.740Z,13292
2017-09-10T06:44:22.009Z,13676
2017-09-10T06:45:32.245Z,14192
2017-09-10T06:46:41.875Z,14720
2017-09-10T06:47:52.121Z,14796
2017-09-10T06:49:02.390Z,14480
2017-09-10T06:50:12.640Z,14164
2017-09-10T06:51:22.820Z,13672
2017-09-10T06:52:33.082Z,13216
2017-09-10T06:53:43.342Z,13236
2017-09-10T06:54:53.281Z,13700
2017-09-10T06:56:03.275Z,14280
2017-09-10T06:57:13.781Z,14928
2017-09-10T06:58:24.052Z,15404
2017-09-10T06:59:34.320Z,15572
2017-09-10T07:00:44.570Z,15688
2017-09-10T07:01:54.813Z,15864
2017-09-10T07:03:05.373Z,16084
2017-09-10T07:04:15.314Z,16124
2017-09-10T07:05:25.563Z,16104
2017-09-10T07:06:35.810Z,15740
2017-09-10T07:07:46.066Z,15364
2017-09-10T07:08:56.590Z,15344
2017-09-10T07:10:06.853Z,15444
2017-09-10T07:11:16.793Z,15524
2017-09-10T07:12:27.041Z,15524
2017-09-10T07:13:37.299Z,15624
2017-09-10T07:14:47.829Z,15832
2017-09-10T07:15:58.081Z,16240
2017-09-10T07:17:07.709Z,16728
2017-09-10T07:18:18.018Z,17504
2017-09-10T07:19:27.958Z,17984
2017-09-10T07:20:37.850Z,18400
2017-09-10T07:21:48.131Z,18976
2017-09-10T07:22:58.379Z,19552
2017-09-10T07:24:08.012Z,19648
2017-09-10T07:25:18.306Z,19232
2017-09-10T07:26:28.811Z,18976
2017-09-10T07:27:38.750Z,18752
2017-09-10T07:28:48.714Z,19168
2017-09-10T07:29:58.662Z,19840
2017-09-10T07:31:08.913Z,20096
2017-09-10T07:32:19.113Z,20288
2017-09-10T07:33:29.405Z,20704
2017-09-10T07:34:39.653Z,21408
2017-09-10T07:35:49.907Z,21952
2017-09-10T07:36:59.855Z,22752
2017-09-10T07:38:10.052Z,22976
2017-09-10T07:39:20.309Z,23008
2017-09-10T07:40:30.558Z,23136
2017-09-10T07:41:40.819Z,23264
2017-09-10T07:42:50.462Z,23584
2017-09-10T07:44:00.979Z,23936
2017-09-10T07:45:11.228Z,24448
2017-09-10T07:46:20.847Z,24928
2017-09-10T07:47:30.796Z,25216
2017-09-10T07:48:41.055Z,25440
2017-09-10T07:49:51.259Z,25792
2017-09-10T07:51:01.508Z,26208
2017-09-10T07:52:11.787Z,26368
2017-09-10T07:53:22.076Z,26496
2017-09-10T07:54:32.331Z,26784
2017-09-10T07:55:42.850Z,26848
2017-09-10T07:56:53.102Z,26752
2017-09-10T07:58:03.359Z,26496
2017-09-10T07:59:13.616Z,26304
2017-09-10T08:00:23.888Z,26080
2017-09-10T08:01:34.395Z,25792
2017-09-10T08:02:44.649Z,25504
2017-09-10T08:03:54.600Z,25120
2017-09-10T08:05:04.878Z,24704
2017-09-10T08:06:15.129Z,24320
2017-09-10T08:07:25.365Z,24000
2017-09-10T08:08:34.996Z,23808
2017-09-10T08:09:44.940Z,23520
2017-09-10T08:10:55.261Z,23360
2017-09-10T08:12:05.213Z,23264
2017-09-10T08:13:15.747Z,23232
2017-09-10T08:14:26.027Z,23424
2017-09-10T08:15:36.297Z,27648
2017-09-10T08:16:46.547Z,23296
2017-09-10T08:17:56.496Z,23488
2017-09-10T08:19:06.699Z,23712
2017-09-10T08:20:16.660Z,23904
2017-09-10T08:21:26.614Z,24320
2017-09-10T08:22:36.871Z,24800
2017-09-10T08:23:47.124Z,25216
2017-09-10T08:24:57.635Z,25952
2017-09-10T08:26:07.918Z,26176
2017-09-10T08:27:17.869Z,27200
2017-09-10T08:28:28.192Z,27456
2017-09-10T08:29:38.485Z,27680
2017-09-10T08:30:48.670Z,26464
2017-09-10T08:31:58.622Z,26784
2017-09-10T08:33:08.555Z,25216
2017-09-10T08:34:18.810Z,25728
2017-09-10T08:35:29.080Z,25120
2017-09-10T08:36:39.303Z,24096
2017-09-10T08:37:49.244Z,24928
2017-09-10T08:38:59.187Z,24416
2017-09-10T08:40:09.133Z,25056
2017-09-10T08:41:19.405Z,25568
2017-09-10T08:42:29.912Z,26112
2017-09-10T08:43:40.185Z,26208
2017-09-10T08:44:50.137Z,26176
2017-09-10T08:46:00.408Z,25856
2017-09-10T08:47:10.660Z,25504
2017-09-10T08:48:21.165Z,25600
2017-09-10T08:49:31.102Z,25984
2017-09-10T08:50:41.369Z,26560
2017-09-10T08:51:51.633Z,29984
2017-09-10T08:53:01.995Z,25600
2017-09-10T08:54:12.503Z,25248
2017-09-10T08:55:22.446Z,24960
2017-09-10T08:56:32.701Z,28896
2017-09-10T08:57:42.975Z,33088
2017-09-10T08:58:52.924Z,54880
2017-09-10T09:00:03.112Z,54304
2017-09-10T09:01:12.739Z,48288
2017-09-10T09:02:23.000Z,46784
2017-09-10T09:03:32.952Z,60992
2017-09-10T09:04:43.213Z,63968
2017-09-10T09:05:53.770Z,46080
2017-09-10T09:07:03.400Z,48832
2017-09-10T09:08:13.668Z,72896
2017-09-10T09:09:23.942Z,42432
2017-09-10T09:10:34.198Z,49504
2017-09-10T09:11:44.080Z,57952
2017-09-10T09:12:54.020Z,57632
2017-09-10T09:14:04.379Z,59680
2017-09-10T09:15:14.655Z,71936
2017-09-10T09:16:24.918Z,21984
2017-09-10T09:17:35.449Z,35680
2017-09-10T09:18:45.721Z,71776
2017-09-10T09:19:55.670Z,77760
2017-09-10T09:21:05.301Z,64480
2017-09-10T09:22:15.570Z,61056
2017-09-10T09:23:25.499Z,21792
2017-09-10T09:24:35.124Z,21504
2017-09-10T09:25:45.388Z,35008
2017-09-10T09:26:55.349Z,85440
2017-09-10T09:28:05.289Z,25312
2017-09-10T09:29:15.788Z,25792
2017-09-10T09:30:26.066Z,20928
2017-09-10T09:31:36.013Z,20352
2017-09-10T09:32:45.971Z,18312
2017-09-10T09:33:55.907Z,19520
2017-09-10T09:35:06.420Z,24896
2017-09-10T09:36:16.354Z,79104
2017-09-10T09:37:26.623Z,96704
2017-09-10T09:38:36.893Z,96704
2017-09-10T09:39:46.850Z,31712
2017-09-10T09:40:57.035Z,103584
2017-09-10T09:42:06.998Z,31488
2017-09-10T09:43:16.956Z,24512
2017-09-10T09:44:26.904Z,23136
2017-09-10T09:45:36.852Z,31296
2017-09-10T09:46:47.108Z,23584
2017-09-10T09:47:57.369Z,38720
2017-09-10T09:49:07.014Z,21408
2017-09-10T09:50:17.283Z,90784
2017-09-10T09:51:27.537Z,95840
2017-09-10T09:52:37.731Z,99552
2017-09-10T09:53:48.000Z,93824
2017-09-10T09:54:58.258Z,88992
2017-09-10T09:56:08.512Z,19712
2017-09-10T09:57:18.783Z,29024
2017-09-10T09:58:29.291Z,86144
2017-09-10T09:59:39.246Z,50400
2017-09-10T10:00:49.521Z,20384
2017-09-10T10:01:59.479Z,22144
2017-09-10T10:03:09.425Z,97728
2017-09-10T10:04:19.941Z,88096
2017-09-10T10:05:29.898Z,71040
2017-09-10T10:06:40.165Z,29472
2017-09-10T10:07:50.418Z,26272
2017-09-10T10:09:00.405Z,30976
2017-09-10T10:10:10.918Z,29728
2017-09-10T10:11:20.871Z,31360
2017-09-10T10:12:31.135Z,52608
2017-09-10T10:13:41.400Z,34816
2017-09-10T10:14:51.355Z,27872
2017-09-10T10:16:01.988Z,30432
2017-09-10T10:17:11.935Z,101664
2017-09-10T10:18:22.238Z,33120
2017-09-10T10:19:32.493Z,30944
2017-09-10T10:20:42.749Z,29664
2017-09-10T10:21:53.273Z,30336
2017-09-10T10:23:03.555Z,30144
2017-09-10T10:24:13.814Z,31488
2017-09-10T10:25:24.076Z,37504
2017-09-10T10:26:34.353Z,111488
2017-09-10T10:27:44.238Z,115904
2017-09-10T10:28:54.488Z,112416
2017-09-10T10:30:04.747Z,107200
2017-09-10T10:31:15.019Z,96576
2017-09-10T10:32:25.282Z,33824
2017-09-10T10:33:35.181Z,104736
2017-09-10T10:34:45.450Z,105088
2017-09-10T10:35:55.728Z,110144
2017-09-10T10:37:05.679Z,120768
2017-09-10T10:38:15.950Z,80096
2017-09-10T10:39:26.466Z,118272
2017-09-10T10:40:36.732Z,122688
2017-09-10T10:41:46.986Z,124160
2017-09-10T10:42:56.300Z,111840
2017-09-10T10:44:06.258Z,113824
2017-09-10T10:45:16.780Z,52096
2017-09-10T10:46:27.049Z,85760
2017-09-10T10:47:36.998Z,113664
2017-09-10T10:48:47.260Z,126560
2017-09-10T10:49:57.511Z,123360
2017-09-10T10:51:07.711Z,120352
2017-09-10T10:52:17.996Z,116448
2017-09-10T10:53:28.275Z,118464
2017-09-10T10:54:38.235Z,121248
2017-09-10T10:55:48.193Z,119520
2017-09-10T10:56:58.750Z,73472
2017-09-10T10:58:08.712Z,122912
2017-09-10T10:59:18.981Z,123392
2017-09-10T11:00:28.687Z,124000
2017-09-10T11:01:38.977Z,128704
2017-09-10T11:02:49.503Z,128288
2017-09-10T11:03:59.792Z,43680
2017-09-10T11:05:10.085Z,49824
2017-09-10T11:06:20.347Z,130784
2017-09-10T11:07:30.621Z,71072
2017-09-10T11:08:40.845Z,38624
2017-09-10T11:09:51.118Z,49984
2017-09-10T11:11:01.088Z,29120
2017-09-10T11:12:11.376Z,28352
2017-09-10T11:13:21.319Z,64160
2017-09-10T11:14:31.529Z,41280
2017-09-10T11:15:41.800Z,47776
2017-09-10T11:16:51.759Z,80000
2017-09-10T11:18:02.029Z,32928
2017-09-10T11:19:12.324Z,123040
2017-09-10T11:20:22.523Z,122464
2017-09-10T11:21:32.479Z,116928
2017-09-10T11:22:42.731Z,31008
2017-09-10T11:23:52.997Z,32224
2017-09-10T11:25:03.268Z,35360
2017-09-10T11:26:13.812Z,37024
2017-09-10T11:27:23.770Z,106240
2017-09-10T11:28:33.726Z,142816
2017-09-10T11:29:43.982Z,143872
2017-09-10T11:30:53.624Z,144064
2017-09-10T11:32:04.130Z,40480
2017-09-10T11:33:14.407Z,40960
2017-09-10T11:34:24.671Z,37952
2017-09-10T11:35:34.623Z,39904
2017-09-10T11:36:44.905Z,42528
2017-09-10T11:37:55.425Z,46176
2017-09-10T11:39:05.694Z,102816
2017-09-10T11:40:15.957Z,126944
2017-09-10T11:41:26.232Z,116608
2017-09-10T11:42:36.195Z,128288
2017-09-10T11:43:46.725Z,42176
2017-09-10T11:44:56.984Z,35136
2017-09-10T11:46:06.969Z,132480
2017-09-10T11:47:17.238Z,33504
2017-09-10T11:48:27.496Z,34144
2017-09-10T11:49:37.705Z,31616
2017-09-10T11:50:47.985Z,29568
2017-09-10T11:51:58.273Z,27168
2017-09-10T11:53:08.541Z,26240
2017-09-10T11:54:18.492Z,26400
2017-09-10T11:55:29.016Z,24224
2017-09-10T11:56:39.273Z,22912
2017-09-10T11:57:49.537Z,25632
2017-09-10T11:58:59.808Z,32992
2017-09-10T12:00:09.435Z,43840
2017-09-10T12:01:20.507Z,52480
2017-09-10T12:02:30.769Z,46560
2017-09-10T12:03:40.726Z,41952
2017-09-10T12:04:50.683Z,54752
2017-09-10T12:06:00.942Z,44704
2017-09-10T12:07:11.454Z,46400
2017-09-10T12:08:21.723Z,56160
2017-09-10T12:09:31.996Z,47584
2017-09-10T12:10:42.257Z,58016
2017-09-10T12:11:52.206Z,40128
2017-09-10T12:13:02.714Z,48512
2017-09-10T12:14:13.001Z,39232
2017-09-10T12:15:23.261Z,36704
2017-09-10T12:16:33.540Z,33152
2017-09-10T12:17:43.816Z,49568
2017-09-10T12:18:54.019Z,42400
2017-09-10T12:20:04.289Z,49888
2017-09-10T12:21:14.248Z,54848
2017-09-10T12:22:23.888Z,49824
2017-09-10T12:23:33.837Z,39488
2017-09-10T12:24:44.358Z,42016
2017-09-10T12:25:54.636Z,48832
2017-09-10T12:27:04.909Z,44896
2017-09-10T12:28:14.860Z,75776
2017-09-10T12:29:24.860Z,74752
2017-09-10T12:30:35.391Z,45344
2017-09-10T12:31:45.336Z,33152
2017-09-10T12:32:54.968Z,28448
2017-09-10T12:34:04.927Z,27552
2017-09-10T12:35:14.552Z,27520
2017-09-10T12:36:24.469Z,28416
2017-09-10T12:37:34.722Z,29888
2017-09-10T12:38:44.350Z,31712
2017-09-10T12:39:54.310Z,36960
2017-09-10T12:41:04.267Z,47488
2017-09-10T12:42:14.150Z,41696
2017-09-10T12:43:24.415Z,54784
2017-09-10T12:44:34.678Z,54592
2017-09-10T12:45:44.954Z,62528
2017-09-10T12:46:54.283Z,73792
2017-09-10T12:48:04.789Z,59040
2017-09-10T12:49:15.053Z,95264
2017-09-10T12:50:25.315Z,119040
2017-09-10T12:51:35.278Z,127712
2017-09-10T12:52:45.233Z,127168
2017-09-10T12:53:55.117Z,116320
2017-09-10T12:55:05.379Z,121152
2017-09-10T12:56:15.634Z,133696
2017-09-10T12:57:25.906Z,137248
2017-09-10T12:58:36.178Z,136224
2017-09-10T12:59:46.691Z,136032
2017-09-10T13:00:56.953Z,131552
2017-09-10T13:02:07.217Z,120288
2017-09-10T13:03:17.479Z,109504
2017-09-10T13:04:27.426Z,120032
2017-09-10T13:05:37.941Z,120416
2017-09-10T13:06:48.220Z,119424
2017-09-10T13:07:58.486Z,120800
2017-09-10T13:09:08.751Z,121152
2017-09-10T13:10:19.038Z,134656
2017-09-10T13:11:29.550Z,133568
2017-09-10T13:12:39.832Z,135584
2017-09-10T13:13:50.102Z,132512
2017-09-10T13:15:00.357Z,125792
2017-09-10T13:16:10.308Z,127232
2017-09-10T13:17:20.507Z,127712
2017-09-10T13:18:30.763Z,126624
2017-09-10T13:19:41.038Z,30752
2017-09-10T13:20:51.300Z,107072
2017-09-10T13:22:01.260Z,42176
2017-09-10T13:23:11.459Z,118304
2017-09-10T13:24:21.731Z,139296
2017-09-10T13:25:32.010Z,142784
2017-09-10T13:26:41.962Z,124896
2017-09-10T13:27:52.238Z,108992
2017-09-10T13:29:02.769Z,123648
2017-09-10T13:30:12.728Z,111616
2017-09-10T13:31:23.004Z,99456
2017-09-10T13:32:33.270Z,87584
2017-09-10T13:33:43.550Z,69664
2017-09-10T13:34:53.759Z,24800
2017-09-10T13:36:04.035Z,25056
2017-09-10T13:37:13.675Z,25856
2017-09-10T13:38:23.953Z,25280
2017-09-10T13:39:34.215Z,25312
2017-09-10T13:40:44.106Z,26752
2017-09-10T13:41:54.060Z,34944
2017-09-10T13:43:04.201Z,38208
2017-09-10T13:44:14.469Z,48512
2017-09-10T13:45:24.416Z,43552
2017-09-10T13:46:34.607Z,103424
2017-09-10T13:47:44.558Z,49888
2017-09-10T13:48:54.826Z,42688
2017-09-10T13:50:05.093Z,124032
2017-09-10T13:51:15.347Z,34752
2017-09-10T13:52:25.571Z,34016
2017-09-10T13:53:35.526Z,35200
2017-09-10T13:54:45.798Z,79680
2017-09-10T13:55:56.075Z,130944
2017-09-10T13:57:06.338Z,123424
2017-09-10T13:58:16.851Z,124128
2017-09-10T13:59:26.805Z,117856
2017-09-10T14:00:37.075Z,109312
2017-09-10T14:01:47.333Z,112096
2017-09-10T14:02:57.595Z,114176
2017-09-10T14:04:08.120Z,108896
2017-09-10T14:05:18.565Z,105728
2017-09-10T14:06:28.837Z,112928
2017-09-10T14:07:39.114Z,118240
2017-09-10T14:08:49.086Z,114208
2017-09-10T14:09:59.621Z,115136
2017-09-10T14:11:09.596Z,121408
2017-09-10T14:12:19.879Z,107840
2017-09-10T14:13:30.143Z,80480
2017-09-10T14:14:40.430Z,109568
2017-09-10T14:15:50.656Z,99552
2017-09-10T14:17:00.929Z,116256
2017-09-10T14:18:11.225Z,100320
2017-09-10T14:19:21.203Z,113600
2017-09-10T14:20:31.486Z,109920
2017-09-10T14:21:42.041Z,38784
2017-09-10T14:22:52.317Z,29632
2017-09-10T14:24:02.277Z,27200
2017-09-10T14:25:12.564Z,31296
2017-09-10T14:26:22.823Z,27232
2017-09-10T14:27:33.030Z,32896
2017-09-10T14:28:43.315Z,109376
2017-09-10T14:29:53.264Z,112128
2017-09-10T14:31:03.539Z,109152
2017-09-10T14:32:13.484Z,118112
2017-09-10T14:33:24.037Z,116320
2017-09-10T14:34:34.327Z,102720
2017-09-10T14:35:44.330Z,28352
2017-09-10T14:36:54.597Z,102208
2017-09-10T14:38:04.872Z,46016
2017-09-10T14:39:15.382Z,38080
2017-09-10T14:40:25.650Z,99264
2017-09-10T14:41:35.597Z,22848
2017-09-10T14:42:45.868Z,22208
2017-09-10T14:43:56.177Z,23872
2017-09-10T14:45:06.703Z,21248
2017-09-10T14:46:16.659Z,21920
2017-09-10T14:47:27.032Z,22176
2017-09-10T14:48:37.323Z,20992
2017-09-10T14:49:47.609Z,20512
2017-09-10T14:50:58.206Z,18336
2017-09-10T14:52:08.167Z,14800
2017-09-10T14:53:18.443Z,14384
2017-09-10T14:54:28.723Z,15000
2017-09-10T14:55:38.692Z,14872
2017-09-10T14:56:49.234Z,14808
2017-09-10T14:57:59.510Z,15852
2017-09-10T14:59:09.468Z,19616
2017-09-10T15:00:19.734Z,25792
2017-09-10T15:01:30.007Z,29536
2017-09-10T15:02:40.520Z,92640
2017-09-10T15:03:50.702Z,81728
2017-09-10T15:05:00.759Z,92384
2017-09-10T15:06:11.028Z,88128
2017-09-10T15:07:21.286Z,81376
2017-09-10T15:08:31.812Z,81216
2017-09-10T15:09:41.766Z,22720
2017-09-10T15:10:52.040Z,20704
2017-09-10T15:12:02.304Z,19232
2017-09-10T15:13:12.563Z,18048
2017-09-10T15:14:23.077Z,17124
2017-09-10T15:15:33.026Z,16444
2017-09-10T15:16:43.186Z,16016
2017-09-10T15:17:53.442Z,25280
2017-09-10T15:19:03.397Z,15792
2017-09-10T15:20:13.917Z,15912
2017-09-10T15:21:23.883Z,16236
2017-09-10T15:22:33.504Z,16800
2017-09-10T15:23:43.474Z,19680
2017-09-10T15:24:53.757Z,40320
2017-09-10T15:26:04.278Z,48416
2017-09-10T15:27:14.574Z,72992
2017-09-10T15:28:24.838Z,56896
2017-09-10T15:29:34.801Z,77152
2017-09-10T15:30:45.078Z,61600
2017-09-10T15:31:55.586Z,23520
2017-09-10T15:33:05.854Z,63456
2017-09-10T15:34:15.482Z,68512
2017-09-10T15:35:25.753Z,63424
2017-09-10T15:36:36.016Z,63808
2017-09-10T15:37:46.589Z,63648
2017-09-10T15:38:56.229Z,61952